createdAt,value
2022-08-17T00:00:08.919Z,0.00
2022-08-17T00:01:09.028Z,0.00
2022-08-17T00:02:18.102Z,0.00
2022-08-17T00:03:10.238Z,0.00
2022-08-17T00:04:11.633Z,0.00
2022-08-17T00:05:08.883Z,0.00
2022-08-17T00:06:08.894Z,0.00
2022-08-17T00:07:08.844Z,0.00
2022-08-17T00:08:08.834Z,0.00
2022-08-17T00:09:08.819Z,0.00
2022-08-17T00:10:08.818Z,0.00
2022-08-17T00:11:08.847Z,0.00
2022-08-17T00:12:35.010Z,0.00
2022-08-17T00:13:09.785Z,0.00
2022-08-17T00:14:08.759Z,0.00
2022-08-17T00:15:10.728Z,0.00
2022-08-17T00:16:08.800Z,0.00
2022-08-17T00:17:08.779Z,0.00
2022-08-17T00:19:01.925Z,0.00
2022-08-17T00:19:09.710Z,0.00
2022-08-17T00:20:08.712Z,0.00
2022-08-17T00:21:10.495Z,0.00
2022-08-17T00:22:32.410Z,0.00
2022-08-17T00:23:09.656Z,0.00
2022-08-17T00:24:08.658Z,0.00
2022-08-17T00:25:08.648Z,0.00
2022-08-17T00:26:08.669Z,0.00
2022-08-17T00:27:08.645Z,0.00
2022-08-17T00:28:08.598Z,0.00
2022-08-17T00:29:08.602Z,0.00
2022-08-17T00:30:08.568Z,0.00
2022-08-17T00:31:08.611Z,0.00
2022-08-17T00:33:15.123Z,0.00
2022-08-17T00:33:15.776Z,0.00
2022-08-17T00:34:09.536Z,0.00
2022-08-17T00:35:08.533Z,0.00
2022-08-17T00:36:08.568Z,0.00
2022-08-17T00:37:08.503Z,0.00
2022-08-17T00:38:08.471Z,0.00
2022-08-17T00:39:08.481Z,0.00
2022-08-17T00:40:08.595Z,0.00
2022-08-17T00:41:08.461Z,0.00
2022-08-17T00:42:08.496Z,0.00
2022-08-17T00:43:08.459Z,0.00
2022-08-17T00:44:08.426Z,0.00
2022-08-17T00:45:08.425Z,0.00
2022-08-17T00:46:08.396Z,0.00
2022-08-17T00:47:08.442Z,0.00
2022-08-17T00:48:11.543Z,0.00
2022-08-17T00:49:09.363Z,0.00
2022-08-17T00:50:08.363Z,0.00
2022-08-17T00:51:08.355Z,0.00
2022-08-17T00:52:10.818Z,0.00
2022-08-17T00:53:08.301Z,0.00
2022-08-17T00:54:08.294Z,0.00
2022-08-17T00:55:08.305Z,0.00
2022-08-17T00:56:08.275Z,0.00
2022-08-17T00:57:08.315Z,0.00
2022-08-17T00:58:08.287Z,0.00
2022-08-17T00:59:08.268Z,0.00
2022-08-17T01:00:08.232Z,0.00
2022-08-17T01:01:08.276Z,0.00
2022-08-17T01:02:08.247Z,0.00
2022-08-17T01:03:08.209Z,0.00
2022-08-17T01:04:08.206Z,0.00
2022-08-17T01:05:08.183Z,0.00
2022-08-17T01:06:08.193Z,0.00
2022-08-17T01:07:08.200Z,0.00
2022-08-17T01:08:08.139Z,0.00
2022-08-17T01:09:08.148Z,0.00
2022-08-17T01:10:08.118Z,0.00
2022-08-17T01:11:09.132Z,0.00
2022-08-17T01:12:08.169Z,0.00
2022-08-17T01:13:08.102Z,0.00
2022-08-17T01:14:08.081Z,0.00
2022-08-17T01:15:08.070Z,0.00
2022-08-17T01:16:08.065Z,0.00
2022-08-17T01:17:08.100Z,0.00
2022-08-17T01:18:08.037Z,0.00
2022-08-17T01:19:08.028Z,0.00
2022-08-17T01:20:07.999Z,0.00
2022-08-17T01:21:08.013Z,0.00
2022-08-17T01:22:08.037Z,0.00
2022-08-17T01:23:07.992Z,0.00
2022-08-17T01:24:07.964Z,0.00
2022-08-17T01:25:07.950Z,0.00
2022-08-17T01:26:07.937Z,0.00
2022-08-17T01:27:10.673Z,0.00
2022-08-17T01:28:07.924Z,0.00
2022-08-17T01:29:07.903Z,0.00
2022-08-17T01:30:56.825Z,0.00
2022-08-17T01:31:08.883Z,0.00
2022-08-17T01:32:07.904Z,0.00
2022-08-17T01:33:07.876Z,0.00
2022-08-17T01:34:07.845Z,0.00
2022-08-17T01:35:07.867Z,0.00
2022-08-17T01:36:07.871Z,0.00
2022-08-17T01:37:07.869Z,0.00
2022-08-17T01:38:07.797Z,0.00
2022-08-17T01:39:07.817Z,0.00
2022-08-17T01:40:07.855Z,0.00
2022-08-17T01:41:07.765Z,0.00
2022-08-17T01:42:07.800Z,0.00
2022-08-17T01:43:07.761Z,0.00
2022-08-17T01:44:07.739Z,0.00
2022-08-17T01:45:07.716Z,0.00
2022-08-17T01:46:07.699Z,0.00
2022-08-17T01:47:07.788Z,0.00
2022-08-17T01:48:07.684Z,0.00
2022-08-17T01:49:07.689Z,0.00
2022-08-17T01:50:07.665Z,0.00
2022-08-17T01:51:07.680Z,0.00
2022-08-17T01:52:07.699Z,0.00
2022-08-17T01:53:07.646Z,0.00
2022-08-17T01:54:07.628Z,0.00
2022-08-17T01:55:07.621Z,0.00
2022-08-17T01:56:07.602Z,0.00
2022-08-17T01:57:07.651Z,0.00
2022-08-17T01:58:07.567Z,0.00
2022-08-17T01:59:07.563Z,0.00
2022-08-17T02:00:07.547Z,0.00
2022-08-17T02:01:07.611Z,0.00
2022-08-17T02:02:07.566Z,0.00
2022-08-17T02:03:07.545Z,0.00
2022-08-17T02:04:07.508Z,0.00
2022-08-17T02:05:07.503Z,0.00
2022-08-17T02:06:27.443Z,0.00
2022-08-17T02:07:08.527Z,0.00
2022-08-17T02:08:07.450Z,0.00
2022-08-17T02:09:07.464Z,0.00
2022-08-17T02:10:18.244Z,0.00
2022-08-17T02:11:11.285Z,0.00
2022-08-17T02:12:39.479Z,0.00
2022-08-17T02:13:08.426Z,0.00
2022-08-17T02:14:07.393Z,0.00
2022-08-17T02:15:07.401Z,0.00
2022-08-17T02:16:07.383Z,0.00
2022-08-17T02:17:07.448Z,0.00
2022-08-17T02:18:07.352Z,0.00
2022-08-17T02:19:07.345Z,0.00
2022-08-17T02:20:07.335Z,0.00
2022-08-17T02:21:07.332Z,0.00
2022-08-17T02:22:07.382Z,0.00
2022-08-17T02:23:07.296Z,0.00
2022-08-17T02:24:07.260Z,0.00
2022-08-17T02:25:07.283Z,0.00
2022-08-17T02:26:07.256Z,0.00
2022-08-17T02:27:07.295Z,0.00
2022-08-17T02:28:07.236Z,0.00
2022-08-17T02:29:07.216Z,0.00
2022-08-17T02:30:59.308Z,0.00
2022-08-17T02:31:08.188Z,0.00
2022-08-17T02:32:07.217Z,0.00
2022-08-17T02:33:09.277Z,0.00
2022-08-17T02:34:07.156Z,0.00
2022-08-17T02:35:07.163Z,0.00
2022-08-17T02:36:07.135Z,0.00
2022-08-17T02:37:07.195Z,0.00
2022-08-17T02:38:07.114Z,0.00
2022-08-17T02:39:07.095Z,0.00
2022-08-17T02:40:07.134Z,0.00
2022-08-17T02:41:07.069Z,0.00
2022-08-17T02:42:07.116Z,0.00
2022-08-17T02:43:07.076Z,0.00
2022-08-17T02:44:07.041Z,0.00
2022-08-17T02:45:07.047Z,0.00
2022-08-17T02:46:07.015Z,0.00
2022-08-17T02:47:07.071Z,0.00
2022-08-17T02:48:07.009Z,0.00
2022-08-17T02:49:07.003Z,0.00
2022-08-17T02:50:06.985Z,0.00
2022-08-17T02:51:06.989Z,0.00
2022-08-17T02:52:07.020Z,0.00
2022-08-17T02:53:07.125Z,0.00
2022-08-17T02:54:41.367Z,0.00
2022-08-17T02:55:07.916Z,0.00
2022-08-17T02:56:06.937Z,0.00
2022-08-17T02:57:06.970Z,0.00
2022-08-17T02:58:06.916Z,0.00
2022-08-17T02:59:06.875Z,0.00
2022-08-17T03:00:06.860Z,0.00
2022-08-17T03:01:06.846Z,0.00
2022-08-17T03:02:06.927Z,0.00
2022-08-17T03:03:06.846Z,0.00
2022-08-17T03:04:06.824Z,0.00
2022-08-17T03:05:06.833Z,0.00
2022-08-17T03:06:06.820Z,0.00
2022-08-17T03:07:06.853Z,0.00
2022-08-17T03:08:06.819Z,0.00
2022-08-17T03:09:07.778Z,0.00
2022-08-17T03:10:06.775Z,0.00
2022-08-17T03:11:06.748Z,0.00
2022-08-17T03:12:06.786Z,0.00
2022-08-17T03:13:06.714Z,0.00
2022-08-17T03:14:06.712Z,0.00
2022-08-17T03:15:06.695Z,0.00
2022-08-17T03:16:06.699Z,0.00
2022-08-17T03:17:06.711Z,0.00
2022-08-17T03:18:06.674Z,0.00
2022-08-17T03:19:06.656Z,0.00
2022-08-17T03:20:06.659Z,0.00
2022-08-17T03:21:06.625Z,0.00
2022-08-17T03:22:36.956Z,0.00
2022-08-17T03:23:07.597Z,0.00
2022-08-17T03:24:08.962Z,0.00
2022-08-17T03:25:06.686Z,0.00
2022-08-17T03:26:06.562Z,0.00
2022-08-17T03:27:07.597Z,0.00
2022-08-17T03:28:06.561Z,0.00
2022-08-17T03:29:06.518Z,0.00
2022-08-17T03:30:06.514Z,0.00
2022-08-17T03:31:06.495Z,0.00
2022-08-17T03:32:06.566Z,0.00
2022-08-17T03:33:06.487Z,0.00
2022-08-17T03:34:06.493Z,0.00
2022-08-17T03:35:06.456Z,0.00
2022-08-17T03:36:06.468Z,0.00
2022-08-17T03:37:06.498Z,5.62
2022-08-17T03:38:06.430Z,5.62
2022-08-17T03:39:06.425Z,5.62
2022-08-17T03:40:06.502Z,5.62
2022-08-17T03:41:06.412Z,5.62
2022-08-17T03:42:06.437Z,5.62
2022-08-17T03:43:06.396Z,5.62
2022-08-17T03:44:06.372Z,11.25
2022-08-17T03:45:06.337Z,11.25
2022-08-17T03:46:06.351Z,11.25
2022-08-17T03:47:07.383Z,11.25
2022-08-17T03:48:06.354Z,16.88
2022-08-17T03:49:06.300Z,16.88
2022-08-17T03:50:06.802Z,16.88
2022-08-17T03:51:06.307Z,16.88
2022-08-17T03:52:06.320Z,22.50
2022-08-17T03:53:06.263Z,22.50
2022-08-17T03:54:06.248Z,22.50
2022-08-17T03:55:06.248Z,28.12
2022-08-17T03:56:06.223Z,28.12
2022-08-17T03:57:06.258Z,33.75
2022-08-17T03:58:06.207Z,33.75
2022-08-17T03:59:06.174Z,39.38
2022-08-17T04:00:07.175Z,39.38
2022-08-17T04:01:06.192Z,45.00
2022-08-17T04:02:06.201Z,45.00
2022-08-17T04:03:06.136Z,50.62
2022-08-17T04:04:06.127Z,50.62
2022-08-17T04:05:06.097Z,56.25
2022-08-17T04:06:06.105Z,56.25
2022-08-17T04:07:06.136Z,61.88
2022-08-17T04:08:06.077Z,67.50
2022-08-17T04:09:06.070Z,67.50
2022-08-17T04:10:06.044Z,73.12
2022-08-17T04:11:06.045Z,73.12
2022-08-17T04:12:06.090Z,78.75
2022-08-17T04:13:06.020Z,84.38
2022-08-17T04:14:06.021Z,84.38
2022-08-17T04:15:05.990Z,90.00
2022-08-17T04:16:05.984Z,95.62
2022-08-17T04:17:06.015Z,95.62
2022-08-17T04:18:07.455Z,101.25
2022-08-17T04:19:05.944Z,106.88
2022-08-17T04:20:05.942Z,106.88
2022-08-17T04:21:05.922Z,112.50
2022-08-17T04:22:05.986Z,112.50
2022-08-17T04:23:05.906Z,118.12
2022-08-17T04:24:05.901Z,118.12
2022-08-17T04:25:05.881Z,123.75
2022-08-17T04:26:05.882Z,129.38
2022-08-17T04:27:05.911Z,135.00
2022-08-17T04:28:05.845Z,135.00
2022-08-17T04:29:06.837Z,140.62
2022-08-17T04:30:05.814Z,146.25
2022-08-17T04:31:05.802Z,146.25
2022-08-17T04:32:05.853Z,151.88
2022-08-17T04:33:07.381Z,157.50
2022-08-17T04:34:05.801Z,168.75
2022-08-17T04:35:05.761Z,174.38
2022-08-17T04:36:05.763Z,180.00
2022-08-17T04:37:05.801Z,180.00
2022-08-17T04:38:05.736Z,185.62
2022-08-17T04:39:05.726Z,185.62
2022-08-17T04:40:05.769Z,185.62
2022-08-17T04:41:05.698Z,191.25
2022-08-17T04:42:05.736Z,196.88
2022-08-17T04:43:05.678Z,202.50
2022-08-17T04:44:05.661Z,208.12
2022-08-17T04:45:05.649Z,213.75
2022-08-17T04:46:05.650Z,219.38
2022-08-17T04:47:05.684Z,219.38
2022-08-17T04:48:05.621Z,225.00
2022-08-17T04:49:05.611Z,230.62
2022-08-17T04:50:05.601Z,230.62
2022-08-17T04:51:05.594Z,236.25
2022-08-17T04:52:05.641Z,236.25
2022-08-17T04:53:05.570Z,241.88
2022-08-17T04:54:05.542Z,241.88
2022-08-17T04:55:05.543Z,247.50
2022-08-17T04:56:05.537Z,253.12
2022-08-17T04:57:05.572Z,253.12
2022-08-17T04:58:05.511Z,258.75
2022-08-17T04:59:05.499Z,264.38
2022-08-17T05:00:05.491Z,270.00
2022-08-17T05:01:05.499Z,270.00
2022-08-17T05:02:05.527Z,275.62
2022-08-17T05:03:05.439Z,281.25
2022-08-17T05:04:21.096Z,286.88
2022-08-17T05:05:06.440Z,286.88
2022-08-17T05:06:05.423Z,292.50
2022-08-17T05:07:05.411Z,292.50
2022-08-17T05:08:05.444Z,298.12
2022-08-17T05:09:05.391Z,303.75
2022-08-17T05:10:05.383Z,303.75
2022-08-17T05:11:05.362Z,309.38
2022-08-17T05:12:05.356Z,315.00
2022-08-17T05:13:05.381Z,315.00
2022-08-17T05:14:05.319Z,320.62
2022-08-17T05:15:05.307Z,326.25
2022-08-17T05:16:05.301Z,331.88
2022-08-17T05:17:07.259Z,337.50
2022-08-17T05:18:06.326Z,337.50
2022-08-17T05:19:05.270Z,337.50
2022-08-17T05:20:05.281Z,343.12
2022-08-17T05:21:05.244Z,343.12
2022-08-17T05:22:05.243Z,348.75
2022-08-17T05:23:05.267Z,348.75
2022-08-17T05:24:06.092Z,354.38
2022-08-17T05:25:06.206Z,360.00
2022-08-17T05:26:05.188Z,365.62
2022-08-17T05:27:06.141Z,371.25
2022-08-17T05:28:05.227Z,376.88
2022-08-17T05:29:05.160Z,382.50
2022-08-17T05:30:05.141Z,388.12
2022-08-17T05:31:05.119Z,388.12
2022-08-17T05:32:05.122Z,393.75
2022-08-17T05:33:06.143Z,399.38
2022-08-17T05:34:05.089Z,405.00
2022-08-17T05:35:05.089Z,416.25
2022-08-17T05:36:05.075Z,421.88
2022-08-17T05:37:05.085Z,433.12
2022-08-17T05:38:05.108Z,438.75
2022-08-17T05:39:05.040Z,450.00
2022-08-17T05:40:05.112Z,461.25
2022-08-17T05:41:05.016Z,466.88
2022-08-17T05:42:05.019Z,466.88
2022-08-17T05:43:05.035Z,472.50
2022-08-17T05:44:05.515Z,478.12
2022-08-17T05:45:04.956Z,478.12
2022-08-17T05:46:04.954Z,478.12
2022-08-17T05:47:04.952Z,483.75
2022-08-17T05:48:05.991Z,483.75
2022-08-17T05:49:04.936Z,489.38
2022-08-17T05:50:09.446Z,500.62
2022-08-17T05:51:05.901Z,523.12
2022-08-17T05:52:04.908Z,545.62
2022-08-17T05:53:04.915Z,562.50
2022-08-17T05:54:04.882Z,579.38
2022-08-17T05:55:04.850Z,585.00
2022-08-17T05:56:04.856Z,596.25
2022-08-17T05:57:04.835Z,613.12
2022-08-17T05:58:04.871Z,635.62
2022-08-17T05:59:04.814Z,641.25
2022-08-17T06:00:04.808Z,646.88
2022-08-17T06:01:04.836Z,652.50
2022-08-17T06:02:04.787Z,652.50
2022-08-17T06:03:04.833Z,652.50
2022-08-17T06:04:04.754Z,646.88
2022-08-17T06:05:04.742Z,646.88
2022-08-17T06:06:04.744Z,641.25
2022-08-17T06:07:04.718Z,641.25
2022-08-17T06:08:04.759Z,646.88
2022-08-17T06:09:04.699Z,652.50
2022-08-17T06:10:04.716Z,669.38
2022-08-17T06:11:04.708Z,675.00
2022-08-17T06:12:04.708Z,697.50
2022-08-17T06:13:04.736Z,725.62
2022-08-17T06:14:04.677Z,748.12
2022-08-17T06:15:04.638Z,759.38
2022-08-17T06:16:04.653Z,759.38
2022-08-17T06:17:05.620Z,753.75
2022-08-17T06:18:04.664Z,742.50
2022-08-17T06:19:04.604Z,731.25
2022-08-17T06:20:04.597Z,725.62
2022-08-17T06:21:04.579Z,736.88
2022-08-17T06:22:04.604Z,765.00
2022-08-17T06:23:04.611Z,793.12
2022-08-17T06:24:04.553Z,810.00
2022-08-17T06:25:04.525Z,815.62
2022-08-17T06:26:05.550Z,798.75
2022-08-17T06:27:04.516Z,776.25
2022-08-17T06:28:04.539Z,759.38
2022-08-17T06:29:04.496Z,759.38
2022-08-17T06:30:04.514Z,770.62
2022-08-17T06:31:04.462Z,804.38
2022-08-17T06:32:04.467Z,832.50
2022-08-17T06:33:04.503Z,866.25
2022-08-17T06:34:04.430Z,883.12
2022-08-17T06:35:04.424Z,883.12
2022-08-17T06:36:09.314Z,855.00
2022-08-17T06:37:05.404Z,826.88
2022-08-17T06:38:04.474Z,810.00
2022-08-17T06:39:04.381Z,804.38
2022-08-17T06:40:04.427Z,821.25
2022-08-17T06:41:04.364Z,838.12
2022-08-17T06:42:04.342Z,871.88
2022-08-17T06:43:06.396Z,900.00
2022-08-17T06:44:04.329Z,922.50
2022-08-17T06:45:04.307Z,916.88
2022-08-17T06:46:04.335Z,900.00
2022-08-17T06:47:04.300Z,871.88
2022-08-17T06:48:04.325Z,843.75
2022-08-17T06:49:04.259Z,826.88
2022-08-17T06:50:04.281Z,810.00
2022-08-17T06:51:04.232Z,793.12
2022-08-17T06:52:04.249Z,781.88
2022-08-17T06:53:04.267Z,765.00
2022-08-17T06:54:04.208Z,753.75
2022-08-17T06:55:04.207Z,736.88
2022-08-17T06:56:04.241Z,720.00
2022-08-17T06:57:04.175Z,708.75
2022-08-17T06:58:05.807Z,697.50
2022-08-17T06:59:05.162Z,686.25
2022-08-17T07:00:04.134Z,658.12
2022-08-17T07:01:04.156Z,641.25
2022-08-17T07:02:04.150Z,641.25
2022-08-17T07:03:04.549Z,646.88
2022-08-17T07:04:06.374Z,652.50
2022-08-17T07:05:05.090Z,635.62
2022-08-17T07:06:04.079Z,646.88
2022-08-17T07:07:04.074Z,646.88
2022-08-17T07:08:04.196Z,641.25
2022-08-17T07:09:04.066Z,630.00
2022-08-17T07:10:04.041Z,635.62
2022-08-17T07:11:04.053Z,652.50
2022-08-17T07:12:04.026Z,669.38
2022-08-17T07:13:04.048Z,663.75
2022-08-17T07:14:03.987Z,675.00
2022-08-17T07:15:03.993Z,663.75
2022-08-17T07:16:03.982Z,669.38
2022-08-17T07:17:03.985Z,669.38
2022-08-17T07:18:04.085Z,669.38
2022-08-17T07:19:03.942Z,675.00
2022-08-17T07:20:03.941Z,680.62
2022-08-17T07:21:03.946Z,680.62
2022-08-17T07:22:03.901Z,680.62
2022-08-17T07:23:03.979Z,680.62
2022-08-17T07:24:03.883Z,691.88
2022-08-17T07:25:03.859Z,708.75
2022-08-17T07:26:03.876Z,720.00
2022-08-17T07:27:03.847Z,736.88
2022-08-17T07:28:07.086Z,759.38
2022-08-17T07:29:03.834Z,770.62
2022-08-17T07:30:08.138Z,765.00
2022-08-17T07:31:04.815Z,759.38
2022-08-17T07:32:03.821Z,748.12
2022-08-17T07:33:03.835Z,742.50
2022-08-17T07:34:03.770Z,731.25
2022-08-17T07:35:03.777Z,742.50
2022-08-17T07:36:03.753Z,753.75
2022-08-17T07:37:03.759Z,742.50
2022-08-17T07:38:03.797Z,736.88
2022-08-17T07:39:03.726Z,731.25
2022-08-17T07:40:15.981Z,725.62
2022-08-17T07:41:04.713Z,720.00
2022-08-17T07:42:03.683Z,753.75
2022-08-17T07:43:04.981Z,770.62
2022-08-17T07:44:03.692Z,770.62
2022-08-17T07:45:03.678Z,781.88
2022-08-17T07:46:03.667Z,793.12
2022-08-17T07:47:03.675Z,804.38
2022-08-17T07:48:03.663Z,804.38
2022-08-17T07:49:03.663Z,776.25
2022-08-17T07:50:03.613Z,776.25
2022-08-17T07:51:03.585Z,787.50
2022-08-17T07:52:47.824Z,810.00
2022-08-17T07:53:04.645Z,843.75
2022-08-17T07:54:13.915Z,849.38
2022-08-17T07:55:04.545Z,883.12
2022-08-17T07:56:03.558Z,888.75
2022-08-17T07:57:03.541Z,956.25
2022-08-17T07:58:03.597Z,916.88
2022-08-17T07:59:03.538Z,916.88
2022-08-17T08:00:03.512Z,939.38
2022-08-17T08:01:03.485Z,1006.88
2022-08-17T08:02:03.577Z,1102.50
2022-08-17T08:03:03.514Z,1080.00
2022-08-17T08:04:03.437Z,1215.00
2022-08-17T08:05:03.445Z,1203.75
2022-08-17T08:06:03.458Z,1361.25
2022-08-17T08:07:03.427Z,1209.38
2022-08-17T08:08:03.474Z,1479.38
2022-08-17T08:09:03.404Z,1676.25
2022-08-17T08:10:03.390Z,1732.50
2022-08-17T08:11:03.391Z,1788.75
2022-08-17T08:12:03.377Z,1845.00
2022-08-17T08:13:03.414Z,1822.50
2022-08-17T08:14:03.370Z,1558.12
2022-08-17T08:15:03.371Z,1642.50
2022-08-17T08:16:03.365Z,1603.12
2022-08-17T08:17:03.337Z,1687.50
2022-08-17T08:18:03.355Z,1400.62
2022-08-17T08:19:03.306Z,1811.25
2022-08-17T08:20:34.958Z,1822.50
2022-08-17T08:21:04.278Z,1631.25
2022-08-17T08:22:03.260Z,1867.50
2022-08-17T08:23:03.324Z,1850.62
2022-08-17T08:24:03.237Z,1878.75
2022-08-17T08:25:03.237Z,1861.88
2022-08-17T08:26:03.245Z,2115.00
2022-08-17T08:27:03.239Z,2058.75
2022-08-17T08:28:03.253Z,2075.62
2022-08-17T08:29:03.199Z,1861.88
2022-08-17T08:30:03.184Z,2160.00
2022-08-17T08:31:03.154Z,2176.88
2022-08-17T08:32:03.157Z,2171.25
2022-08-17T08:33:03.232Z,2193.75
2022-08-17T08:34:03.152Z,2176.88
2022-08-17T08:35:03.722Z,2250.00
2022-08-17T08:36:03.128Z,2323.12
2022-08-17T08:37:16.561Z,2210.62
2022-08-17T08:38:04.133Z,2441.25
2022-08-17T08:39:03.105Z,2565.00
2022-08-17T08:40:03.137Z,2565.00
2022-08-17T08:41:03.094Z,2193.75
2022-08-17T08:42:03.060Z,2548.12
2022-08-17T08:43:03.111Z,2413.12
2022-08-17T08:44:03.039Z,2238.75
2022-08-17T08:45:05.005Z,2300.62
2022-08-17T08:46:03.036Z,2289.38
2022-08-17T08:47:03.014Z,2283.75
2022-08-17T08:48:05.380Z,2261.25
2022-08-17T08:49:14.536Z,2278.12
2022-08-17T08:50:05.342Z,2272.50
2022-08-17T08:51:02.972Z,2300.62
2022-08-17T08:52:02.999Z,2323.12
2022-08-17T08:53:02.999Z,2368.12
2022-08-17T08:54:02.937Z,2385.00
2022-08-17T08:55:02.941Z,2323.12
2022-08-17T08:56:02.912Z,2306.25
2022-08-17T08:58:03.939Z,2491.88
2022-08-17T08:59:02.899Z,2553.75
2022-08-17T09:00:02.875Z,2638.12
2022-08-17T09:01:02.925Z,2649.38
2022-08-17T09:02:02.830Z,2098.12
2022-08-17T09:03:02.893Z,2733.75
2022-08-17T09:04:20.021Z,2818.12
2022-08-17T09:05:14.342Z,2733.75
2022-08-17T09:06:03.810Z,2660.62
2022-08-17T09:07:02.818Z,2250.00
2022-08-17T09:08:02.857Z,2694.38
2022-08-17T09:09:02.786Z,2210.62
2022-08-17T09:10:02.754Z,2193.75
2022-08-17T09:11:02.769Z,2289.38
2022-08-17T09:12:03.932Z,2863.12
2022-08-17T09:13:09.587Z,2503.12
2022-08-17T09:14:03.725Z,2188.12
2022-08-17T09:15:02.721Z,1940.62
2022-08-17T09:16:02.732Z,2058.75
2022-08-17T09:17:02.707Z,2041.88
2022-08-17T09:19:02.199Z,2542.50
2022-08-17T09:19:04.993Z,2975.62
2022-08-17T09:20:02.683Z,2323.12
2022-08-17T09:21:02.678Z,2750.62
2022-08-17T09:22:02.663Z,2660.62
2022-08-17T09:23:02.694Z,2615.62
2022-08-17T09:24:02.650Z,2508.75
2022-08-17T09:25:02.653Z,2480.62
2022-08-17T09:26:02.612Z,2469.38
2022-08-17T09:27:02.598Z,2503.12
2022-08-17T09:28:02.652Z,2525.62
2022-08-17T09:29:02.561Z,2525.62
2022-08-17T09:30:02.585Z,2565.00
2022-08-17T09:31:02.576Z,2610.00
2022-08-17T09:32:02.555Z,2621.25
2022-08-17T09:33:02.622Z,2621.25
2022-08-17T09:34:02.559Z,2626.88
2022-08-17T09:35:02.549Z,2593.12
2022-08-17T09:36:02.522Z,2559.38
2022-08-17T09:37:02.532Z,2553.75
2022-08-17T09:38:02.562Z,2542.50
2022-08-17T09:39:02.498Z,2598.75
2022-08-17T09:40:02.551Z,2615.62
2022-08-17T09:41:02.472Z,2615.62
2022-08-17T09:42:02.488Z,2677.50
2022-08-17T09:43:02.497Z,2700.00
2022-08-17T09:44:02.432Z,2694.38
2022-08-17T09:45:02.441Z,2688.75
2022-08-17T09:46:02.438Z,2700.00
2022-08-17T09:47:02.420Z,2728.12
2022-08-17T09:48:02.464Z,2750.62
2022-08-17T09:49:02.403Z,2739.38
2022-08-17T09:50:02.405Z,2863.12
2022-08-17T09:51:04.984Z,2998.12
2022-08-17T09:52:02.439Z,3020.62
2022-08-17T09:53:03.651Z,2655.00
2022-08-17T09:54:21.355Z,2126.25
2022-08-17T09:55:03.484Z,2171.25
2022-08-17T09:56:02.355Z,2092.50
2022-08-17T09:57:27.809Z,2233.12
2022-08-17T09:58:03.373Z,2610.00
2022-08-17T09:59:02.462Z,2244.38
2022-08-17T10:00:02.291Z,2773.12
2022-08-17T10:01:02.336Z,1856.25
2022-08-17T10:02:03.090Z,2621.25
2022-08-17T10:03:02.307Z,3015.00
2022-08-17T10:04:02.613Z,2210.62
2022-08-17T10:05:02.246Z,2345.62
2022-08-17T10:06:02.252Z,2548.12
2022-08-17T10:07:02.196Z,3127.50
2022-08-17T10:08:02.227Z,3026.25
2022-08-17T10:09:02.260Z,3037.50
2022-08-17T10:10:02.202Z,2998.12
2022-08-17T10:11:02.177Z,2964.38
2022-08-17T10:12:02.190Z,2941.88
2022-08-17T10:13:02.162Z,2998.12
2022-08-17T10:14:02.373Z,2998.12
2022-08-17T10:15:07.940Z,3037.50
2022-08-17T10:16:03.537Z,3031.88
2022-08-17T10:17:02.153Z,2913.75
2022-08-17T10:18:02.166Z,3026.25
2022-08-17T10:19:02.190Z,2998.12
2022-08-17T10:20:02.345Z,2992.50
2022-08-17T10:21:02.777Z,2863.12
2022-08-17T10:22:14.896Z,2778.75
2022-08-17T10:23:03.190Z,2660.62
2022-08-17T10:24:02.403Z,2688.75
2022-08-17T10:25:22.079Z,2632.50
2022-08-17T10:26:03.359Z,2711.25
2022-08-17T10:27:02.076Z,2660.62
2022-08-17T10:28:02.043Z,2587.50
2022-08-17T10:29:03.285Z,2570.62
2022-08-17T10:30:02.027Z,2542.50
2022-08-17T10:31:31.034Z,2576.25
2022-08-17T10:32:03.012Z,2508.75
2022-08-17T10:33:01.991Z,2193.75
2022-08-17T10:34:02.028Z,1856.25
2022-08-17T10:35:01.948Z,1901.25
2022-08-17T10:36:01.939Z,1805.62
2022-08-17T10:37:01.918Z,2705.62
2022-08-17T10:38:01.916Z,1816.88
2022-08-17T10:39:04.312Z,2182.50
2022-08-17T10:40:01.930Z,2075.62
2022-08-17T10:41:01.910Z,2025.00
2022-08-17T10:42:01.872Z,2925.00
2022-08-17T10:43:01.878Z,2902.50
2022-08-17T10:44:40.391Z,2621.25
2022-08-17T10:45:02.873Z,2531.25
2022-08-17T10:46:10.581Z,1867.50
2022-08-17T10:47:02.853Z,1878.75
2022-08-17T10:48:05.778Z,2025.00
2022-08-17T10:49:02.857Z,2255.62
2022-08-17T10:50:01.808Z,2863.12
2022-08-17T10:51:01.805Z,1873.12
2022-08-17T10:52:01.790Z,1833.75
2022-08-17T10:53:01.806Z,1788.75
2022-08-17T10:54:01.849Z,1704.38
2022-08-17T10:55:01.758Z,1608.75
2022-08-17T10:56:01.733Z,1546.88
2022-08-17T10:57:01.721Z,1513.12
2022-08-17T10:58:01.708Z,1507.50
2022-08-17T10:59:01.748Z,1530.00
2022-08-17T11:00:01.718Z,1597.50
2022-08-17T11:01:01.788Z,1636.88
2022-08-17T11:02:01.687Z,1653.75
2022-08-17T11:03:01.679Z,1681.88
2022-08-17T11:04:01.710Z,1738.12
2022-08-17T11:05:01.644Z,2655.00
2022-08-17T11:06:01.655Z,1794.38
2022-08-17T11:07:01.639Z,2542.50
2022-08-17T11:08:01.646Z,1743.75
2022-08-17T11:09:01.668Z,1687.50
2022-08-17T11:10:01.618Z,1653.75
2022-08-17T11:11:01.613Z,1625.62
2022-08-17T11:12:01.598Z,1597.50
2022-08-17T11:13:01.565Z,1558.12
2022-08-17T11:14:01.618Z,1518.75
2022-08-17T11:15:01.568Z,1496.25
2022-08-17T11:16:06.242Z,1518.75
2022-08-17T11:17:02.527Z,1473.75
2022-08-17T11:18:01.560Z,1473.75
2022-08-17T11:19:01.563Z,1816.88
2022-08-17T11:20:01.513Z,1513.12
2022-08-17T11:21:01.503Z,1563.75
2022-08-17T11:22:01.505Z,1530.00
2022-08-17T11:23:01.491Z,1518.75
2022-08-17T11:24:01.556Z,1524.38
2022-08-17T11:25:01.445Z,1535.62
2022-08-17T11:26:01.424Z,1563.75
2022-08-17T11:27:01.407Z,1586.25
2022-08-17T11:28:01.452Z,1603.12
2022-08-17T11:29:01.477Z,1603.12
2022-08-17T11:30:02.505Z,1603.12
2022-08-17T11:31:01.397Z,1636.88
2022-08-17T11:32:01.395Z,1687.50
2022-08-17T11:33:01.364Z,2295.00
2022-08-17T11:34:01.420Z,1895.62
2022-08-17T11:35:01.352Z,3150.00
2022-08-17T11:36:01.346Z,2919.38
2022-08-17T11:37:01.337Z,2041.88
2022-08-17T11:38:01.324Z,2036.25
2022-08-17T11:39:01.363Z,2053.12
2022-08-17T11:40:01.342Z,2086.88
2022-08-17T11:41:01.285Z,2126.25
2022-08-17T11:42:01.297Z,2081.25
2022-08-17T11:43:01.263Z,2131.88
2022-08-17T11:44:02.045Z,3566.25
2022-08-17T11:45:01.267Z,2311.88
2022-08-17T11:46:01.225Z,2250.00
2022-08-17T11:47:01.239Z,2908.12
2022-08-17T11:48:27.833Z,2452.50
2022-08-17T11:49:02.241Z,2053.12
2022-08-17T11:50:01.233Z,1940.62
2022-08-17T11:51:01.202Z,1816.88
2022-08-17T11:52:01.473Z,2041.88
2022-08-17T11:53:01.165Z,1738.12
2022-08-17T11:54:28.930Z,1867.50
2022-08-17T11:55:31.451Z,2030.62
2022-08-17T11:56:02.143Z,2829.38
2022-08-17T11:57:01.145Z,2244.38
2022-08-17T11:58:01.099Z,1788.75
2022-08-17T11:59:01.161Z,2154.38
2022-08-17T12:00:01.080Z,2880.00
2022-08-17T12:01:01.090Z,2424.38
2022-08-17T12:02:01.090Z,2902.50
2022-08-17T12:03:01.128Z,2413.12
2022-08-17T12:04:01.123Z,1991.25
2022-08-17T12:05:01.032Z,1693.12
2022-08-17T12:06:01.061Z,1788.75
2022-08-17T12:07:01.043Z,1687.50
2022-08-17T12:08:01.016Z,1783.12
2022-08-17T12:09:01.044Z,1642.50
2022-08-17T12:10:01.015Z,1828.12
2022-08-17T12:11:01.000Z,2199.38
2022-08-17T12:12:12.818Z,2193.75
2022-08-17T12:13:01.998Z,2491.88
2022-08-17T12:14:01.019Z,2486.25
2022-08-17T12:15:16.176Z,2520.00
2022-08-17T12:16:01.994Z,2587.50
2022-08-17T12:17:00.942Z,2548.12
2022-08-17T12:18:00.902Z,2739.38
2022-08-17T12:19:00.980Z,2733.75
2022-08-17T12:20:00.934Z,2975.62
2022-08-17T12:21:00.901Z,3195.00
2022-08-17T12:22:00.918Z,3003.75
2022-08-17T12:23:00.871Z,1833.75
2022-08-17T12:24:00.918Z,1698.75
2022-08-17T12:25:00.859Z,2221.88
2022-08-17T12:26:00.861Z,2846.25
2022-08-17T12:27:00.854Z,3330.00
2022-08-17T12:28:06.595Z,3223.12
2022-08-17T12:29:02.200Z,2941.88
2022-08-17T12:30:00.810Z,2801.25
2022-08-17T12:31:01.124Z,3015.00
2022-08-17T12:32:00.826Z,2941.88
2022-08-17T12:33:00.796Z,2908.12
2022-08-17T12:34:00.844Z,3099.38
2022-08-17T12:35:00.761Z,3026.25